Current Weather

Gila Bend Af Aux

Gila Bend, Arizona (KGXF)

Report from: Sunday, June 26, 2022 3:58 PM UTC
Current time: Sunday, June 26, 2022 4:44 PM UTC

Nearby weather
Weather history
Weather forecast

Temperature34.9°C (94.8°F)
Heat index35.1°C (95.2°F)
Dew point16.0°C (60.8°F)
Winds 9 kts (4.6 m/s, 10.4 mph) Northwest (310°)
Visibility10 mi. (16.1 km)
Altimeter29.96 in.Hg (1015 mB)
Relative humidity33 %
Density altitude2,466 ft. (752 m)
Sea-level pressure101.3 kPa (1013 mB, 29.92 in.Hg)
Remarks Fully automated report
System requires maintenance
Automated weather observing station with precipitation discriminator
Flight conditions Visual Meteorological Conditions
Raw dataKGXF 261558Z AUTO 31009KT 10SM M 35/16 A2996 RMK AO2 SLP131 T03490160 $
An error has occurred. This application may no longer respond until reloaded. Reload 🗙